aviador You're here:

KHBG Decoded Metar

HATTIESBURG in MS, USA
Report Time2017-11-20 04:53:00
UTC Time2017-11-20 05:53:52
Flight Rules vfr VFR
Wind310° at 03 kt
W.Decomp.*RWY 31: 3.0 kt HW 0.1 kt RCW
W.Rank310° ranks 14
Current wind is below 310° avg. (6.3)
Visibility9999 m
Phenomena:N/A
Clouds:N/A
Expected CloudBase > 400 ft AGL from Temp-Dew spread
CeilingNone
Temp04°C (ISA -11)
Dew Point03°C (93% RH)
AAT1.4°C
QNH1024 hPa
Density Alt-1,424 ft
Elevation144 ft
Report Wrong Elevation
Raw Report
KHBG 200453Z AUTO 31003KT 10SM CLR 04/03 A3024 RMK AO2 SLP241
T00390028=

Extra information for KHBG:More info

Metar Taf Metar & Taf Last 4 Metars F.Rules Stats Wind Profile Meteogram Temp Stats Airport Information Weather charts Add Link Nearby VenuesMetar ALERT Operation Metar Decoded Social comments

AIRNAV info for KHBG